Time;durP1;ratioP1;P1;durP2;ratioP2;P2;SDS_P1;SDS_P2;PMS_P1;PMS_P2;Temp;Humidity;BMP_temperature;BMP_pressure;BME280_temperature;BME280_humidity;BME280_pressure;Samples;Min_cycle;Max_cycle;Signal;HPM_P1;HPM_P2
2023/06/21 00:00:41;;;;;;;;;;;;;;;22.58;88.62;100619.66;4137221;28;20044;-67
2023/06/21 00:02:43;;;;;;;;;;;;;;;22.56;88.44;100610.84;4137371;28;20033;-67
2023/06/21 00:04:46;;;;;;;;;;;;;;;22.53;88.69;100608.59;4137758;28;20443;-68
2023/06/21 00:06:49;;;;;;;;;;;;;;;22.49;88.83;100614.63;4137868;28;20064;-66
2023/06/21 00:08:51;;;;;;;;;;;;;;;22.46;89.30;100614.28;4137057;28;20016;-67
2023/06/21 00:10:53;;;;;;;;;;;;;;;22.46;89.24;100617.91;4121101;28;19964;-67
2023/06/21 00:12:55;;;;;;;;;;;;;;;22.45;89.35;100609.91;4137714;28;20012;-68
2023/06/21 00:14:58;;;;;;;;;;;;;;;22.44;89.19;100611.81;4137541;28;20344;-68
2023/06/21 00:17:00;;;;;;;;;;;;;;;22.44;89.17;100619.25;4138001;28;20443;-67
2023/06/21 00:19:02;;;;;;;;;;;;;;;22.42;89.14;100629.69;4133447;28;20013;-67
2023/06/21 00:21:05;;;;;;;;;;;;;;;22.41;89.10;100628.84;4137096;28;20372;-67
2023/06/21 00:23:08;;;;;;;;;;;;;;;22.39;89.38;100627.44;4135516;28;20017;-66
2023/06/21 00:25:10;;;;;;;;;;;;;;;22.35;89.09;100621.66;4136367;28;20475;-68
2023/06/21 00:27:12;;;;;;;;;;;;;;;22.36;89.61;100622.47;4136506;28;20005;-66
2023/06/21 00:29:14;;;;;;;;;;;;;;;22.37;89.57;100624.13;4134967;28;20036;-67
2023/06/21 00:31:16;;;;;;;;;;;;;;;22.35;89.32;100621.66;4135128;28;20016;-66
2023/06/21 00:33:18;;;;;;;;;;;;;;;22.34;89.36;100635.66;4119218;28;20013;-67
2023/06/21 00:35:20;;;;;;;;;;;;;;;22.31;89.36;100631.50;4136381;28;20525;-67
2023/06/21 00:37:26;;;;;;;;;;;;;;;22.31;89.76;100637.00;4118568;28;20459;-66
2023/06/21 00:39:28;;;;;;;;;;;;;;;22.30;89.72;100636.16;4134819;28;20109;-67
2023/06/21 00:41:31;;;;;;;;;;;;;;;22.29;89.71;100639.97;4136502;28;20482;-67
2023/06/21 00:43:33;;;;;;;;;;;;;;;22.28;89.82;100640.22;4135547;28;20040;-66
2023/06/21 00:45:39;;;;;;;;;;;;;;;22.26;89.77;100643.22;4135215;28;20012;-65
2023/06/21 00:47:41;;;;;;;;;;;;;;;22.25;89.67;100636.06;4135967;28;20021;-67
2023/06/21 00:49:43;;;;;;;;;;;;;;;22.24;89.92;100639.91;4136042;28;20008;-68
2023/06/21 00:51:45;;;;;;;;;;;;;;;22.24;89.84;100636.31;4119172;28;20029;-67
2023/06/21 00:53:48;;;;;;;;;;;;;;;22.23;89.86;100642.94;4136894;28;20033;-67
2023/06/21 00:55:51;;;;;;;;;;;;;;;22.22;89.83;100631.06;4130675;28;20454;-67
2023/06/21 00:57:52;;;;;;;;;;;;;;;22.23;89.91;100618.16;4136028;28;20012;-66
2023/06/21 00:59:54;;;;;;;;;;;;;;;22.22;89.97;100600.81;4119145;28;20025;-65
2023/06/21 01:01:56;;;;;;;;;;;;;;;22.22;90.01;100603.56;4136088;28;20024;-68
2023/06/21 01:03:59;;;;;;;;;;;;;;;22.22;90.04;100611.00;4135515;28;20020;-65
2023/06/21 01:06:05;;;;;;;;;;;;;;;22.23;89.90;100609.91;4118706;28;20012;-68
2023/06/21 01:08:12;;;;;;;;;;;;;;;22.23;89.88;100607.16;4135458;28;20012;-67
2023/06/21 01:10:17;;;;;;;;;;;;;;;22.25;89.97;100607.72;4133838;28;20028;-65
2023/06/21 01:12:22;;;;;;;;;;;;;;;22.22;89.84;100606.31;4120998;28;20024;-68
2023/06/21 01:14:26;;;;;;;;;;;;;;;22.21;89.62;100614.81;4138483;28;20004;-66
2023/06/21 01:16:31;;;;;;;;;;;;;;;22.19;89.84;100606.00;4140440;28;20335;-67
2023/06/21 01:18:35;;;;;;;;;;;;;;;22.17;89.86;100608.19;4139452;28;20000;-67
2023/06/21 01:20:37;;;;;;;;;;;;;;;22.17;90.23;100610.94;4139484;28;20000;-67
2023/06/21 01:22:40;;;;;;;;;;;;;;;22.14;89.73;100606.78;4138834;28;20025;-66
2023/06/21 01:24:47;;;;;;;;;;;;;;;22.12;89.96;100600.72;4137118;28;20013;-66
2023/06/21 01:26:58;;;;;;;;;;;;;;;22.11;90.12;100607.28;4140060;28;20017;-67
2023/06/21 01:29:11;;;;;;;;;;;;;;;22.09;90.29;100606.72;4138715;28;20020;-67
2023/06/21 01:31:15;;;;;;;;;;;;;;;22.07;90.60;100597.88;4135202;28;20012;-67
2023/06/21 01:33:18;;;;;;;;;;;;;;;22.06;90.64;100599.00;4138000;28;20008;-68
2023/06/21 01:35:20;;;;;;;;;;;;;;;22.05;90.78;100603.69;4131708;28;20001;-67
2023/06/21 01:37:23;;;;;;;;;;;;;;;22.06;90.75;100601.75;4136990;28;20412;-66
2023/06/21 01:39:25;;;;;;;;;;;;;;;;;;4121283;28;20013;-67
2023/06/21 01:41:28;;;;;;;;;;;;;;;22.08;90.30;100602.31;4140115;28;20056;-66
2023/06/21 01:43:30;;;;;;;;;;;;;;;;;;4139244;28;20008;-65
2023/06/21 01:45:33;;;;;;;;;;;;;;;22.06;90.32;100599.00;4138411;28;20008;-66
2023/06/21 01:47:35;;;;;;;;;;;;;;;22.07;90.49;100603.38;4135160;28;20028;-67
2023/06/21 01:49:41;;;;;;;;;;;;;;;22.06;90.75;100596.25;4138037;28;21337;-67
2023/06/21 01:51:43;;;;;;;;;;;;;;;22.07;90.63;100597.88;4121842;28;20016;-67
2023/06/21 01:53:45;;;;;;;;;;;;;;;22.07;90.82;100593.25;4136071;28;20017;-67
2023/06/21 01:55:48;;;;;;;;;;;;;;;22.06;90.55;100599.00;4138111;28;20016;-66
2023/06/21 01:57:51;;;;;;;;;;;;;;;;;;4138419;28;19926;-67
2023/06/21 01:59:54;;;;;;;;;;;;;;;22.07;90.43;100598.72;4137513;28;20016;-67
2023/06/21 02:01:59;;;;;;;;;;;;;;;22.08;90.61;100596.81;4121645;28;20020;-67
2023/06/21 02:04:01;;;;;;;;;;;;;;;22.11;90.26;100596.28;4136467;28;20008;-66
2023/06/21 02:06:05;;;;;;;;;;;;;;;22.13;90.13;100603.22;4138717;28;20627;-67
2023/06/21 02:08:09;;;;;;;;;;;;;;;22.15;89.79;100608.44;4137606;28;20040;-66
2023/06/21 02:10:11;;;;;;;;;;;;;;;22.14;89.69;100607.59;4134085;28;20009;-67
2023/06/21 02:12:13;;;;;;;;;;;;;;;22.15;89.49;100608.44;4139257;28;20487;-66
2023/06/21 02:14:15;;;;;;;;;;;;;;;22.14;89.72;100617.78;4130426;28;20515;-67
2023/06/21 02:16:17;;;;;;;;;;;;;;;22.15;89.34;100627.72;4137878;28;20020;-67
2023/06/21 02:18:22;;;;;;;;;;;;;;;22.15;89.40;100660.72;4139277;28;20453;-66
2023/06/21 02:20:24;;;;;;;;;;;;;;;22.16;89.08;100694.53;4121059;28;20013;-66
2023/06/21 02:22:26;;;;;;;;;;;;;;;22.12;88.80;100678.53;4132078;28;20016;-66
2023/06/21 02:24:30;;;;;;;;;;;;;;;22.10;88.79;100674.38;4136369;28;20016;-66
2023/06/21 02:26:32;;;;;;;;;;;;;;;22.06;88.79;100670.50;4122178;28;20031;-67
2023/06/21 02:28:34;;;;;;;;;;;;;;;22.03;89.05;100684.75;4121977;28;20057;-67
2023/06/21 02:30:36;;;;;;;;;;;;;;;22.00;89.39;100679.75;4137632;28;20011;-67
2023/06/21 02:32:38;;;;;;;;;;;;;;;21.99;89.55;100670.69;4138282;28;20016;-67
2023/06/21 02:34:43;;;;;;;;;;;;;;;21.96;90.01;100666.53;4138436;28;20027;-66
2023/06/21 02:36:53;;;;;;;;;;;;;;;21.97;90.38;100681.09;4120787;28;20028;-67
2023/06/21 02:38:55;;;;;;;;;;;;;;;21.99;90.67;100676.19;4139136;28;20456;-67
2023/06/21 02:40:57;;;;;;;;;;;;;;;21.99;90.95;100678.94;4106157;28;20029;-67
2023/06/21 02:43:00;;;;;;;;;;;;;;;22.02;90.87;100688.56;4138960;28;20024;-67
2023/06/21 02:45:02;;;;;;;;;;;;;;;22.03;90.92;100688.31;4138443;28;20624;-67
2023/06/21 02:47:04;;;;;;;;;;;;;;;22.04;91.05;100692.75;4121587;28;20033;-67
2023/06/21 02:49:08;;;;;;;;;;;;;;;22.05;91.09;100688.06;4137091;28;19968;-67
2023/06/21 02:51:12;;;;;;;;;;;;;;;22.07;91.50;100689.50;4122209;28;20455;-67
2023/06/21 02:53:14;;;;;;;;;;;;;;;22.08;91.66;100701.31;4139003;28;20448;-67
2023/06/21 02:55:17;;;;;;;;;;;;;;;22.05;91.73;100694.44;4137302;28;20024;-65
2023/06/21 02:57:19;;;;;;;;;;;;;;;22.04;92.14;100695.50;4138583;28;20368;-65
2023/06/21 02:59:21;;;;;;;;;;;;;;;22.05;91.98;100694.44;4137408;28;19933;-66
2023/06/21 03:01:23;;;;;;;;;;;;;;;22.05;92.21;100697.19;4139630;28;20012;-65
2023/06/21 03:03:25;;;;;;;;;;;;;;;22.05;92.40;100688.06;4138457;28;20016;-65
2023/06/21 03:05:30;;;;;;;;;;;;;;;22.02;92.63;100681.19;4138230;28;20020;-66
2023/06/21 03:07:33;;;;;;;;;;;;;;;22.00;93.01;100668.75;4139036;28;20028;-66
2023/06/21 03:09:35;;;;;;;;;;;;;;;21.99;93.12;100656.09;4136960;28;20008;-64
2023/06/21 03:11:37;;;;;;;;;;;;;;;21.99;93.46;100651.44;4138732;28;20522;-66
2023/06/21 03:13:40;;;;;;;;;;;;;;;21.99;93.58;100640.44;4138592;28;20431;-67
2023/06/21 03:15:42;;;;;;;;;;;;;;;21.99;93.85;100631.34;4138755;28;20029;-66
2023/06/21 03:17:44;;;;;;;;;;;;;;;21.98;93.99;100640.69;4137942;28;20032;-66
2023/06/21 03:19:46;;;;;;;;;;;;;;;21.99;94.03;100650.59;4133396;28;20924;-66
2023/06/21 03:21:49;;;;;;;;;;;;;;;21.98;94.24;100652.53;4135351;28;20020;-66
2023/06/21 03:23:52;;;;;;;;;;;;;;;21.97;94.27;100670.09;4136672;28;20024;-66
2023/06/21 03:25:54;;;;;;;;;;;;;;;21.92;94.45;100684.59;4136727;28;20047;-66
2023/06/21 03:27:59;;;;;;;;;;;;;;;21.85;94.40;100699.63;4136837;28;20005;-66
2023/06/21 03:30:03;;;;;;;;;;;;;;;21.78;94.65;100697.88;4120971;28;20009;-67
2023/06/21 03:32:08;;;;;;;;;;;;;;;21.74;95.55;100696.75;4135932;28;20017;-66
2023/06/21 03:34:10;;;;;;;;;;;;;;;21.73;95.95;100691.50;4120814;28;20016;-67
2023/06/21 03:36:12;;;;;;;;;;;;;;;21.74;95.98;100683.00;4137622;28;20029;-66
2023/06/21 03:38:14;;;;;;;;;;;;;;;21.72;96.10;100671.44;4120985;28;20029;-66
2023/06/21 03:40:20;;;;;;;;;;;;;;;21.72;96.36;100667.81;4132355;28;19933;-67
2023/06/21 03:42:22;;;;;;;;;;;;;;;21.75;96.68;100673.63;4121110;28;20017;-66
2023/06/21 03:44:25;;;;;;;;;;;;;;;21.77;96.49;100665.16;4120245;28;20021;-66
2023/06/21 03:46:27;;;;;;;;;;;;;;;21.78;96.74;100658.56;4136678;28;20077;-66
2023/06/21 03:48:30;;;;;;;;;;;;;;;21.80;96.78;100661.88;4121051;28;20021;-66
2023/06/21 03:50:34;;;;;;;;;;;;;;;21.85;96.67;100677.63;4119890;28;20013;-65
2023/06/21 03:52:36;;;;;;;;;;;;;;;21.86;95.88;100676.53;4135804;28;20020;-66
2023/06/21 03:54:40;;;;;;;;;;;;;;;21.88;95.82;100664.22;4120905;28;20021;-67
2023/06/21 03:56:43;;;;;;;;;;;;;;;21.88;95.50;100672.47;4128274;28;20024;-67
2023/06/21 03:58:45;;;;;;;;;;;;;;;21.89;95.39;100667.78;4134970;28;20024;-66
2023/06/21 04:00:47;;;;;;;;;;;;;;;21.89;95.66;100676.03;4120408;28;20037;-66
2023/06/21 04:02:49;;;;;;;;;;;;;;;21.90;95.67;100688.72;4138048;28;20098;-67
2023/06/21 04:04:51;;;;;;;;;;;;;;;21.89;95.76;100690.59;4137218;28;20025;-66
2023/06/21 04:06:53;;;;;;;;;;;;;;;21.88;96.11;100688.97;4137566;28;20032;-66
2023/06/21 04:08:55;;;;;;;;;;;;;;;21.88;96.12;100685.38;4135251;28;20021;-66
2023/06/21 04:10:57;;;;;;;;;;;;;;;21.85;96.56;100683.97;4136712;28;20020;-65
2023/06/21 04:13:00;;;;;;;;;;;;;;;21.86;96.68;100682.88;4136122;28;20053;-65
2023/06/21 04:15:04;;;;;;;;;;;;;;;21.89;96.41;100687.84;4132625;28;20024;-68
2023/06/21 04:17:07;;;;;;;;;;;;;;;21.90;96.34;100695.03;4137480;28;20460;-67
2023/06/21 04:19:09;;;;;;;;;;;;;;;21.89;95.90;100709.03;4120297;28;20794;-68
2023/06/21 04:21:11;;;;;;;;;;;;;;;21.86;96.15;100695.78;4135540;28;19925;-67
2023/06/21 04:23:13;;;;;;;;;;;;;;;21.82;96.38;100700.13;4137288;28;20472;-69
2023/06/21 04:25:16;;;;;;;;;;;;;;;21.81;96.77;100717.72;4120356;28;20013;-68
2023/06/21 04:27:22;;;;;;;;;;;;;;;21.80;96.70;100713.28;4136179;28;20036;-67
2023/06/21 04:29:26;;;;;;;;;;;;;;;21.79;96.86;100720.72;4135991;28;20012;-68
2023/06/21 04:31:28;;;;;;;;;;;;;;;21.75;96.86;100736.88;4135320;28;20012;-68
2023/06/21 04:33:30;;;;;;;;;;;;;;;21.76;96.89;100756.97;4137495;28;20366;-66
2023/06/21 04:35:33;;;;;;;;;;;;;;;21.73;96.83;100757.47;4136670;28;20028;-68
2023/06/21 04:37:35;;;;;;;;;;;;;;;21.73;96.94;100762.97;4135561;28;20903;-67
2023/06/21 04:39:37;;;;;;;;;;;;;;;21.71;96.79;100765.13;4137164;28;20435;-71
2023/06/21 04:41:39;;;;;;;;;;;;;;;21.69;97.03;100765.38;4136757;28;20539;-69
2023/06/21 04:43:42;;;;;;;;;;;;;;;21.71;97.53;100771.44;4136776;28;20023;-69
2023/06/21 04:45:48;;;;;;;;;;;;;;;21.73;97.61;100779.44;4133895;28;20055;-68
2023/06/21 04:47:52;;;;;;;;;;;;;;;21.73;97.36;100779.44;4137429;28;20362;-67
2023/06/21 04:49:54;;;;;;;;;;;;;;;21.73;97.40;100776.69;4137228;28;20024;-66
2023/06/21 04:51:57;;;;;;;;;;;;;;;21.74;97.70;100790.19;4134007;28;20044;-66
2023/06/21 04:54:00;;;;;;;;;;;;;;;21.76;98.00;100785.28;4135386;28;20036;-66
2023/06/21 04:56:02;;;;;;;;;;;;;;;21.77;97.92;100775.09;4137305;28;20012;-66
2023/06/21 04:58:05;;;;;;;;;;;;;;;21.80;98.21;100777.34;4131948;28;20369;-66
2023/06/21 05:00:08;;;;;;;;;;;;;;;21.81;98.14;100784.53;4137603;28;20017;-67
2023/06/21 05:02:11;;;;;;;;;;;;;;;21.84;98.07;100795.00;4137485;28;19926;-67
2023/06/21 05:04:13;;;;;;;;;;;;;;;21.86;97.78;100801.09;4136718;28;20012;-67
2023/06/21 05:06:16;;;;;;;;;;;;;;;21.88;97.67;100803.59;4136987;28;20048;-66
2023/06/21 05:08:17;;;;;;;;;;;;;;;21.89;98.01;100802.50;4137545;28;20469;-67
2023/06/21 05:10:20;;;;;;;;;;;;;;;21.90;98.19;100798.69;4135741;28;20024;-67
2023/06/21 05:12:22;;;;;;;;;;;;;;;21.91;97.99;100801.19;4137874;28;20029;-67
2023/06/21 05:14:24;;;;;;;;;;;;;;;21.92;98.15;100797.34;4137122;28;20450;-67
2023/06/21 05:16:25;;;;;;;;;;;;;;;21.94;98.22;100800.69;4137426;28;20460;-66
2023/06/21 05:18:29;;;;;;;;;;;;;;;21.99;98.46;100799.06;4137326;28;20057;-66
2023/06/21 05:20:31;;;;;;;;;;;;;;;22.02;98.35;100793.94;4137524;28;20024;-65
2023/06/21 05:22:33;;;;;;;;;;;;;;;22.06;98.38;100802.50;4137706;28;20032;-65
2023/06/21 05:24:37;;;;;;;;;;;;;;;22.11;98.14;100810.81;4136708;28;20016;-66
2023/06/21 05:26:44;;;;;;;;;;;;;;;22.13;98.08;100811.38;4137464;28;20016;-67
2023/06/21 05:28:45;;;;;;;;;;;;;;;22.16;97.91;100810.06;4136741;28;20028;-66
2023/06/21 05:30:47;;;;;;;;;;;;;;;22.14;97.73;100811.13;4137004;28;20639;-66
2023/06/21 05:32:50;;;;;;;;;;;;;;;22.15;98.18;100806.50;4137584;28;20020;-66
2023/06/21 05:34:54;;;;;;;;;;;;;;;22.17;98.22;100809.81;4119118;28;20012;-66
2023/06/21 05:36:56;;;;;;;;;;;;;;;22.20;98.29;100812.06;4134366;28;20348;-66
2023/06/21 05:38:58;;;;;;;;;;;;;;;22.24;98.33;100798.63;4135887;28;20028;-66
2023/06/21 05:41:00;;;;;;;;;;;;;;;22.27;98.12;100800.84;4134869;28;20368;-66
2023/06/21 05:43:02;;;;;;;;;;;;;;;22.29;98.34;100815.22;4135079;28;19981;-65
2023/06/21 05:45:05;;;;;;;;;;;;;;;22.29;98.46;100817.97;4118274;28;20021;-66
2023/06/21 05:47:08;;;;;;;;;;;;;;;22.36;98.14;100831.56;4134689;28;20008;-66
2023/06/21 05:49:10;;;;;;;;;;;;;;;22.38;98.31;100832.13;4135794;28;20028;-66
2023/06/21 05:51:13;;;;;;;;;;;;;;;22.41;98.43;100826.13;4135962;28;20027;-66
2023/06/21 05:53:15;;;;;;;;;;;;;;;22.41;98.15;100829.69;4136088;28;20004;-66
2023/06/21 05:55:17;;;;;;;;;;;;;;;22.42;98.66;100828.63;4134752;28;20020;-66
2023/06/21 05:57:19;;;;;;;;;;;;;;;22.42;98.42;100822.31;4136209;28;20087;-66
2023/06/21 05:59:21;;;;;;;;;;;;;;;22.48;98.45;100829.53;4137773;28;20021;-66
2023/06/21 06:01:23;;;;;;;;;;;;;;;22.50;98.26;100821.84;4139407;28;20480;-66
2023/06/21 06:03:25;;;;;;;;;;;;;;;22.52;98.10;100818.84;4139776;28;19973;-67
2023/06/21 06:05:27;;;;;;;;;;;;;;;22.53;98.45;100815.84;4138877;28;20008;-66
2023/06/21 06:07:30;;;;;;;;;;;;;;;22.55;98.22;100824.66;4138903;28;20395;-66
2023/06/21 06:09:32;;;;;;;;;;;;;;;22.56;98.18;100831.84;4137097;28;20060;-66
2023/06/21 06:11:36;;;;;;;;;;;;;;;22.57;97.92;100835.41;4139571;28;20036;-65
2023/06/21 06:13:38;;;;;;;;;;;;;;;22.59;97.52;100836.84;4139398;28;20008;-66
2023/06/21 06:15:40;;;;;;;;;;;;;;;22.61;97.20;100839.34;4139011;28;20028;-67
2023/06/21 06:17:42;;;;;;;;;;;;;;;22.62;96.98;100839.09;4139152;28;20013;-66
2023/06/21 06:19:44;;;;;;;;;;;;;;;22.62;96.77;100844.59;4136087;28;20012;-67
2023/06/21 06:21:47;;;;;;;;;;;;;;;22.62;96.50;100839.09;4138850;28;20631;-66
2023/06/21 06:23:51;;;;;;;;;;;;;;;22.62;96.43;100846.53;4137882;28;20491;-66
2023/06/21 06:25:53;;;;;;;;;;;;;;;22.63;96.55;100846.25;4139564;28;21395;-65
2023/06/21 06:27:55;;;;;;;;;;;;;;;22.65;96.26;100851.50;4139121;28;19979;-66
2023/06/21 06:29:57;;;;;;;;;;;;;;;22.65;95.97;100846.00;4139544;28;20017;-66
2023/06/21 06:31:59;;;;;;;;;;;;;;;22.61;96.07;100851.16;4139633;28;20025;-66
2023/06/21 06:34:01;;;;;;;;;;;;;;;22.64;96.02;100852.59;4139294;28;20045;-66
2023/06/21 06:36:03;;;;;;;;;;;;;;;22.66;95.95;100853.16;4139400;28;20016;-67
2023/06/21 06:38:05;;;;;;;;;;;;;;;22.66;95.84;100862.28;4138365;28;20032;-66
2023/06/21 06:40:09;;;;;;;;;;;;;;;22.66;95.99;100859.53;4138294;28;20024;-66
2023/06/21 06:42:11;;;;;;;;;;;;;;;22.67;95.80;100847.41;4137549;28;20024;-66
2023/06/21 06:44:14;;;;;;;;;;;;;;;22.72;95.61;100851.31;4138963;28;20042;-66
2023/06/21 06:46:16;;;;;;;;;;;;;;;22.74;95.39;100849.94;4137966;28;20036;-65
2023/06/21 06:48:18;;;;;;;;;;;;;;;22.76;95.37;100839.53;4138114;28;20434;-67
2023/06/21 06:50:20;;;;;;;;;;;;;;;22.78;94.62;100844.78;4138195;28;20012;-67
2023/06/21 06:52:22;;;;;;;;;;;;;;;22.80;94.60;100854.44;4138111;28;20107;-67
2023/06/21 06:54:24;;;;;;;;;;;;;;;22.82;93.76;100843.16;4138678;28;20015;-67
2023/06/21 06:56:27;;;;;;;;;;;;;;;22.83;92.62;100847.59;4137713;28;20452;-67
2023/06/21 06:58:35;;;;;;;;;;;;;;;22.84;92.78;100852.03;4135898;28;20132;-67
2023/06/21 07:00:37;;;;;;;;;;;;;;;22.86;92.39;100853.41;4138527;28;20022;-65
2023/06/21 07:02:39;;;;;;;;;;;;;;;22.89;92.21;100854.84;4134238;28;20044;-66
2023/06/21 07:04:41;;;;;;;;;;;;;;;22.92;91.51;100862.59;4138403;28;20024;-67
2023/06/21 07:06:43;;;;;;;;;;;;;;;22.96;90.34;100860.13;4134914;28;20028;-67
2023/06/21 07:08:46;;;;;;;;;;;;;;;22.98;89.73;100867.06;4120156;28;20468;-67
2023/06/21 07:10:48;;;;;;;;;;;;;;;22.99;89.22;100863.22;4136630;28;20032;-66
2023/06/21 07:12:53;;;;;;;;;;;;;;;23.01;89.08;100866.56;4137573;28;20016;-67
2023/06/21 07:14:55;;;;;;;;;;;;;;;23.01;88.21;100869.31;4135659;28;20024;-66
2023/06/21 07:16:57;;;;;;;;;;;;;;;23.02;88.57;100868.22;4138029;28;20479;-66
2023/06/21 07:18:59;;;;;;;;;;;;;;;23.02;87.90;100873.75;4138169;28;20378;-66
2023/06/21 07:21:02;;;;;;;;;;;;;;;23.01;87.88;100876.75;4136244;28;20032;-67
2023/06/21 07:23:04;;;;;;;;;;;;;;;23.04;87.40;100892.75;4137857;28;20031;-67
2023/06/21 07:25:07;;;;;;;;;;;;;;;23.04;87.45;100890.81;4137944;28;20440;-66
2023/06/21 07:27:09;;;;;;;;;;;;;;;23.09;87.19;100894.75;4137701;28;20020;-66
2023/06/21 07:29:12;;;;;;;;;;;;;;;23.09;86.81;100900.25;4137862;28;20025;-66
2023/06/21 07:31:14;;;;;;;;;;;;;;;23.08;86.82;100904.94;4137829;28;20032;-67
2023/06/21 07:33:16;;;;;;;;;;;;;;;23.09;86.93;100909.38;4139846;28;20407;-67
2023/06/21 07:35:18;;;;;;;;;;;;;;;23.12;86.76;100908.00;4137177;28;20024;-67
2023/06/21 07:37:20;;;;;;;;;;;;;;;23.15;87.18;100915.75;4137956;28;20438;-67
2023/06/21 07:39:22;;;;;;;;;;;;;;;23.16;86.78;100922.94;4138814;28;20460;-67
2023/06/21 07:41:24;;;;;;;;;;;;;;;23.18;87.00;100923.50;4135622;28;20028;-67
2023/06/21 07:43:26;;;;;;;;;;;;;;;23.19;86.72;100925.19;4136623;28;20037;-68
2023/06/21 07:45:29;;;;;;;;;;;;;;;23.19;85.85;100942.53;4136380;28;20426;-68
2023/06/21 07:47:31;;;;;;;;;;;;;;;23.18;85.82;100935.38;4134243;28;20522;-67
2023/06/21 07:49:33;;;;;;;;;;;;;;;23.21;85.90;100940.38;4134136;28;20014;-68
2023/06/21 07:51:35;;;;;;;;;;;;;;;23.23;85.17;100931.88;4135501;28;20025;-68
2023/06/21 07:53:37;;;;;;;;;;;;;;;23.27;84.34;100937.69;4136269;28;20017;-67
2023/06/21 07:55:39;;;;;;;;;;;;;;;23.31;83.82;100947.94;4136579;28;20432;-68
2023/06/21 07:57:41;;;;;;;;;;;;;;;23.33;83.53;100945.75;4136891;28;20353;-67
2023/06/21 07:59:43;;;;;;;;;;;;;;;23.35;83.32;100948.25;4135607;28;20013;-66
2023/06/21 08:01:47;;;;;;;;;;;;;;;23.36;83.06;100945.22;4135872;28;20017;-67
2023/06/21 08:03:49;;;;;;;;;;;;;;;23.42;82.53;100945.28;4137500;28;20016;-68
2023/06/21 08:05:51;;;;;;;;;;;;;;;23.44;82.76;100948.63;4138639;28;19934;-67
2023/06/21 08:07:53;;;;;;;;;;;;;;;23.47;82.02;100954.44;4136900;28;20480;-67
2023/06/21 08:09:55;;;;;;;;;;;;;;;23.48;82.11;100949.75;4137426;28;20394;-67
2023/06/21 08:11:58;;;;;;;;;;;;;;;23.48;81.97;100950.63;4137369;28;20017;-66
2023/06/21 08:14:00;;;;;;;;;;;;;;;23.50;81.81;100953.94;4137773;28;20021;-67
2023/06/21 08:16:02;;;;;;;;;;;;;;;23.53;81.79;100955.34;4137617;28;20048;-67
2023/06/21 08:18:07;;;;;;;;;;;;;;;23.54;81.38;100960.59;4136866;28;20038;-68
2023/06/21 08:20:09;;;;;;;;;;;;;;;23.57;80.83;100962.00;4137586;28;20058;-67
2023/06/21 08:22:15;;;;;;;;;;;;;;;23.58;81.00;100963.69;4137473;28;20367;-67
2023/06/21 08:24:17;;;;;;;;;;;;;;;23.58;80.91;100958.97;4119810;28;20021;-68
2023/06/21 08:26:19;;;;;;;;;;;;;;;23.60;80.24;100955.97;4137944;28;20420;-67
2023/06/21 08:28:22;;;;;;;;;;;;;;;23.62;80.15;100959.31;4137571;28;20472;-67
2023/06/21 08:30:24;;;;;;;;;;;;;;;23.67;80.40;100955.78;4133886;28;19977;-67
2023/06/21 08:32:26;;;;;;;;;;;;;;;23.69;80.51;100967.38;4132503;28;20008;-67
2023/06/21 08:34:29;;;;;;;;;;;;;;;23.69;80.08;100976.47;4137580;28;20016;-67
2023/06/21 08:36:31;;;;;;;;;;;;;;;23.72;80.26;100973.19;4136329;28;20029;-68
2023/06/21 08:38:33;;;;;;;;;;;;;;;23.77;80.34;100974.34;4137025;28;20067;-67
2023/06/21 08:40:37;;;;;;;;;;;;;;;23.78;79.91;100968.59;4135157;28;20356;-67
2023/06/21 08:42:39;;;;;;;;;;;;;;;23.79;79.99;100961.94;4137189;28;20447;-67
2023/06/21 08:44:41;;;;;;;;;;;;;;;23.80;80.40;100971.91;4137253;28;20020;-67
2023/06/21 08:46:42;;;;;;;;;;;;;;;23.80;80.30;100973.84;4137962;28;20390;-67
2023/06/21 08:48:44;;;;;;;;;;;;;;;23.83;80.25;100973.31;4135367;28;20376;-67
2023/06/21 08:50:48;;;;;;;;;;;;;;;23.85;79.39;100977.50;4134422;28;20016;-67
2023/06/21 08:52:51;;;;;;;;;;;;;;;23.89;79.02;100977.81;4136453;28;20016;-68
2023/06/21 08:54:55;;;;;;;;;;;;;;;23.92;78.33;100982.81;4135484;28;20028;-68
2023/06/21 08:56:59;;;;;;;;;;;;;;;23.96;78.30;100980.38;4137412;28;20025;-67
2023/06/21 08:59:02;;;;;;;;;;;;;;;23.98;77.65;100969.91;4136482;28;20028;-68
2023/06/21 09:01:05;;;;;;;;;;;;;;;23.98;77.33;100984.53;4137092;28;20013;-68
2023/06/21 09:03:08;;;;;;;;;;;;;;;24.01;77.12;100989.53;4120798;28;20380;-66
2023/06/21 09:05:10;;;;;;;;;;;;;;;24.05;77.09;100989.84;4138012;28;20641;-67
2023/06/21 09:07:14;;;;;;;;;;;;;;;24.07;77.06;100999.50;4137837;28;19929;-68
2023/06/21 09:09:16;;;;;;;;;;;;;;;24.07;76.67;100993.97;4136908;28;20008;-67
2023/06/21 09:11:19;;;;;;;;;;;;;;;24.10;76.42;101000.91;4120256;28;20044;-67
2023/06/21 09:13:24;;;;;;;;;;;;;;;24.10;76.23;100998.97;4136483;28;20024;-68
2023/06/21 09:15:27;;;;;;;;;;;;;;;24.13;76.12;101005.91;4135534;28;20017;-68
2023/06/21 09:17:32;;;;;;;;;;;;;;;24.15;76.02;101002.88;4134440;28;20056;-67
2023/06/21 09:19:34;;;;;;;;;;;;;;;24.17;75.71;101012.59;4136259;28;20037;-67
2023/06/21 09:21:36;;;;;;;;;;;;;;;24.19;75.72;101013.13;4137615;28;20020;-67
2023/06/21 09:23:40;;;;;;;;;;;;;;;24.22;75.20;101007.09;4137762;28;20012;-67
2023/06/21 09:25:44;;;;;;;;;;;;;;;24.26;74.75;101008.25;4136829;28;20032;-67
2023/06/21 09:27:48;;;;;;;;;;;;;;;24.29;74.95;101007.72;4119776;28;20544;-68
2023/06/21 09:29:50;;;;;;;;;;;;;;;24.31;75.12;101003.84;4136557;28;20024;-66
2023/06/21 09:31:52;;;;;;;;;;;;;;;24.31;74.79;101006.63;4136870;28;20036;-66
2023/06/21 09:33:54;;;;;;;;;;;;;;;24.33;74.74;101002.50;4139575;28;20037;-67
2023/06/21 09:35:57;;;;;;;;;;;;;;;24.34;74.43;101015.22;4139904;28;20012;-68
2023/06/21 09:37:59;;;;;;;;;;;;;;;24.38;74.49;101010.81;4139736;28;20020;-67
2023/06/21 09:40:03;;;;;;;;;;;;;;;24.41;73.89;101010.28;4139653;28;20020;-68
2023/06/21 09:42:05;;;;;;;;;;;;;;;24.42;74.22;101013.88;4139653;28;20024;-68
2023/06/21 09:44:07;;;;;;;;;;;;;;;24.43;74.04;101016.38;4140113;28;20029;-68
2023/06/21 09:46:11;;;;;;;;;;;;;;;24.44;73.81;101014.47;4138541;28;20874;-67
2023/06/21 09:48:14;;;;;;;;;;;;;;;24.48;74.05;101010.06;4140243;28;20032;-67
2023/06/21 09:50:16;;;;;;;;;;;;;;;24.48;73.60;101015.59;4140051;28;20017;-68
2023/06/21 09:52:22;;;;;;;;;;;;;;;24.52;73.66;101021.44;4139842;28;20371;-67
2023/06/21 09:54:24;;;;;;;;;;;;;;;24.53;73.49;101021.16;4139687;28;20025;-67
2023/06/21 09:56:30;;;;;;;;;;;;;;;24.54;73.22;101017.28;4137760;28;20376;-67
2023/06/21 09:58:33;;;;;;;;;;;;;;;24.55;72.88;101015.38;4139256;28;20021;-67
2023/06/21 10:00:35;;;;;;;;;;;;;;;24.57;72.87;101014.03;4139357;28;19993;-67
2023/06/21 10:02:38;;;;;;;;;;;;;;;24.59;72.68;101009.09;4139456;28;20016;-67
2023/06/21 10:04:42;;;;;;;;;;;;;;;24.61;72.50;101017.13;4139090;28;20028;-68
2023/06/21 10:06:50;;;;;;;;;;;;;;;24.61;72.19;101023.47;4136135;28;20025;-67
2023/06/21 10:08:52;;;;;;;;;;;;;;;24.62;72.51;101018.78;4139060;28;20467;-66
2023/06/21 10:10:54;;;;;;;;;;;;;;;24.63;72.29;101012.16;4138127;28;20339;-67
2023/06/21 10:12:57;;;;;;;;;;;;;;;24.65;72.12;101018.25;4140152;28;20023;-67
2023/06/21 10:14:59;;;;;;;;;;;;;;;24.64;72.26;101017.41;4137876;28;20020;-67
2023/06/21 10:17:04;;;;;;;;;;;;;;;24.64;71.94;101020.19;4139452;28;20021;-66
2023/06/21 10:19:06;;;;;;;;;;;;;;;24.63;72.06;101007.47;4138912;28;20017;-67
2023/06/21 10:21:08;;;;;;;;;;;;;;;24.68;71.78;101011.38;4139080;28;20028;-67
2023/06/21 10:23:10;;;;;;;;;;;;;;;24.69;71.52;101015.81;4138592;28;20028;-67
2023/06/21 10:25:13;;;;;;;;;;;;;;;24.71;71.53;101022.72;4138300;28;20024;-67
2023/06/21 10:27:15;;;;;;;;;;;;;;;24.72;71.46;101021.63;4137882;28;20017;-67
2023/06/21 10:29:18;;;;;;;;;;;;;;;24.76;70.97;101032.97;4138883;28;19925;-67
2023/06/21 10:31:20;;;;;;;;;;;;;;;24.82;70.04;101037.44;4139381;28;20032;-68